DLH518 EDDF-MROC
Flight info
| Callsign | DLH518 |
|---|---|
| Flight time | N/A |
| Altitude | 34000 |
| Route | ULKIG4S ULKIG Y180 DIK UN857 TOLVU DCT RAPOR DCT GIMER/N0466F330 DCT ESTOC UT300 ELCOB/N0465F340 UT300 SENLO UN502 JSY DCT LIZAD DCT GAPLI/M080F340 DCT DINIM/M080F360 DCT 51N020W 50N030W 48N040W 46N050W DCT SUPRY/N0462F360 DCT NANSO/M081F380 DCT CARAC M201 DRYED DCT LSIER DCT FLUPS/M081F400 DCT MAPYL/N0464F400 G437 ZQA DCT JAYEE G437 DYNAH/N0455F390 UG437 ULBAS UM330 GCM UG877 BONOS UZ403 PIRAS BARRA4P |
| Aircraft | A343/H-SDE2E3FGHIJ3J5M1P2RWXYZ/LB1D1 |
Departure
| Time | N/A |
|---|---|
| Airport | Frankfurt Main Airport (EDDF) |
Arrival
| Time | 2026-05-09 05:53 |
|---|---|
| Airport | Juan Santamaría International Airport (MROC) |
| Time | Latitude | Longitude | Altitude | Speed | Heading |
|---|---|---|---|---|---|
| 2026-05-09 05:18 | 13.09142 | -83.92926 | 35940 ft | 467 kts | 191° |
| 2026-05-09 05:18 | 13.02767 | -83.94235 | 35942 ft | 468 kts | 191° |
| 2026-05-09 05:19 | 12.96376 | -83.95546 | 35942 ft | 469 kts | 191° |
| 2026-05-09 05:19 | 12.89982 | -83.96857 | 35940 ft | 469 kts | 191° |
| 2026-05-09 05:20 | 12.83587 | -83.98168 | 35938 ft | 469 kts | 191° |
| 2026-05-09 05:20 | 12.77191 | -83.99479 | 35939 ft | 469 kts | 191° |
| 2026-05-09 05:21 | 12.70795 | -84.00788 | 35941 ft | 469 kts | 191° |
| 2026-05-09 05:21 | 12.64398 | -84.02098 | 35938 ft | 469 kts | 191° |
| 2026-05-09 05:22 | 12.57988 | -84.03409 | 35938 ft | 470 kts | 191° |
| 2026-05-09 05:22 | 12.51582 | -84.04718 | 35936 ft | 470 kts | 191° |
| 2026-05-09 05:23 | 12.45174 | -84.06028 | 35938 ft | 470 kts | 191° |
| 2026-05-09 05:23 | 12.38771 | -84.07336 | 35939 ft | 469 kts | 191° |
| 2026-05-09 05:24 | 12.32410 | -84.08634 | 35940 ft | 470 kts | 191° |
| 2026-05-09 05:24 | 12.25996 | -84.09943 | 35936 ft | 470 kts | 191° |
| 2026-05-09 05:25 | 12.20619 | -84.11040 | 35863 ft | 471 kts | 191° |
| 2026-05-09 05:25 | 12.16312 | -84.11918 | 35551 ft | 481 kts | 191° |
| 2026-05-09 05:25 | 12.10835 | -84.13034 | 35155 ft | 483 kts | 191° |
| 2026-05-09 05:26 | 12.07545 | -84.13704 | 34916 ft | 482 kts | 191° |
| 2026-05-09 05:26 | 12.04254 | -84.14375 | 34692 ft | 482 kts | 191° |
| 2026-05-09 05:26 | 12.00963 | -84.15045 | 34463 ft | 482 kts | 191° |
| 2026-05-09 05:26 | 11.97682 | -84.15713 | 34241 ft | 481 kts | 190° |
| 2026-05-09 05:27 | 11.94395 | -84.16382 | 34017 ft | 481 kts | 190° |
| 2026-05-09 05:27 | 11.91121 | -84.17048 | 33777 ft | 480 kts | 190° |
| 2026-05-09 05:27 | 11.87845 | -84.17714 | 33514 ft | 480 kts | 190° |
| 2026-05-09 05:27 | 11.84570 | -84.18380 | 33255 ft | 480 kts | 190° |
| 2026-05-09 05:28 | 11.81285 | -84.19048 | 33005 ft | 481 kts | 190° |
| 2026-05-09 05:28 | 11.78000 | -84.19715 | 32755 ft | 482 kts | 190° |
| 2026-05-09 05:28 | 11.74716 | -84.20383 | 32499 ft | 482 kts | 190° |
| 2026-05-09 05:28 | 11.71421 | -84.21052 | 32244 ft | 483 kts | 189° |
| 2026-05-09 05:29 | 11.68126 | -84.21722 | 32024 ft | 483 kts | 189° |
| 2026-05-09 05:29 | 11.64831 | -84.22391 | 31779 ft | 483 kts | 189° |
| 2026-05-09 05:29 | 11.61542 | -84.23059 | 31539 ft | 481 kts | 189° |
| 2026-05-09 05:29 | 11.58263 | -84.23725 | 31305 ft | 479 kts | 189° |
| 2026-05-09 05:30 | 11.54996 | -84.24388 | 31076 ft | 478 kts | 189° |
| 2026-05-09 05:30 | 11.51743 | -84.25049 | 30840 ft | 476 kts | 189° |
| 2026-05-09 05:30 | 11.48505 | -84.25706 | 30612 ft | 474 kts | 189° |
| 2026-05-09 05:30 | 11.45277 | -84.26361 | 30385 ft | 472 kts | 189° |
| 2026-05-09 05:31 | 11.42059 | -84.27013 | 30168 ft | 470 kts | 189° |
| 2026-05-09 05:31 | 11.38855 | -84.27663 | 29923 ft | 469 kts | 188° |
| 2026-05-09 05:31 | 11.35665 | -84.28309 | 29658 ft | 467 kts | 188° |
| 2026-05-09 05:31 | 11.32483 | -84.28953 | 29390 ft | 465 kts | 188° |
| 2026-05-09 05:32 | 11.29314 | -84.29595 | 29123 ft | 463 kts | 188° |
| 2026-05-09 05:32 | 11.26162 | -84.30233 | 28872 ft | 461 kts | 188° |
| 2026-05-09 05:32 | 11.23025 | -84.30869 | 28650 ft | 459 kts | 188° |
| 2026-05-09 05:32 | 11.19898 | -84.31502 | 28394 ft | 457 kts | 188° |
| 2026-05-09 05:33 | 11.16781 | -84.32132 | 28135 ft | 456 kts | 188° |
| 2026-05-09 05:33 | 11.13673 | -84.32761 | 27889 ft | 455 kts | 188° |
| 2026-05-09 05:33 | 11.10575 | -84.33388 | 27641 ft | 453 kts | 188° |
| 2026-05-09 05:33 | 11.07487 | -84.34012 | 27388 ft | 452 kts | 188° |
| 2026-05-09 05:34 | 11.04409 | -84.34635 | 27140 ft | 451 kts | 188° |
| 2026-05-09 05:34 | 11.01337 | -84.35256 | 26922 ft | 449 kts | 188° |
| 2026-05-09 05:34 | 10.98298 | -84.35871 | 26532 ft | 443 kts | 188° |
| 2026-05-09 05:34 | 10.95283 | -84.36481 | 26036 ft | 440 kts | 187° |
| 2026-05-09 05:35 | 10.92286 | -84.37087 | 25545 ft | 438 kts | 187° |
| 2026-05-09 05:35 | 10.89327 | -84.37870 | 24878 ft | 443 kts | 193° |
| 2026-05-09 05:35 | 10.86368 | -84.38812 | 24153 ft | 448 kts | 194° |
| 2026-05-09 05:35 | 10.83405 | -84.39786 | 23599 ft | 447 kts | 194° |
| 2026-05-09 05:36 | 10.80455 | -84.40763 | 23020 ft | 445 kts | 194° |
| 2026-05-09 05:36 | 10.77523 | -84.41736 | 22478 ft | 441 kts | 194° |
| 2026-05-09 05:36 | 10.74618 | -84.42701 | 21972 ft | 437 kts | 194° |
| 2026-05-09 05:36 | 10.71738 | -84.43658 | 21454 ft | 434 kts | 194° |
| 2026-05-09 05:37 | 10.68884 | -84.44607 | 20962 ft | 430 kts | 195° |
| 2026-05-09 05:37 | 10.66054 | -84.45548 | 20463 ft | 426 kts | 195° |
| 2026-05-09 05:37 | 10.63247 | -84.46481 | 19972 ft | 423 kts | 195° |
| 2026-05-09 05:37 | 10.60464 | -84.47406 | 19473 ft | 419 kts | 195° |
| 2026-05-09 05:38 | 10.57698 | -84.48324 | 18996 ft | 416 kts | 195° |
| 2026-05-09 05:38 | 10.54958 | -84.49235 | 18512 ft | 413 kts | 195° |
| 2026-05-09 05:38 | 10.52235 | -84.50139 | 17996 ft | 411 kts | 195° |
| 2026-05-09 05:38 | 10.49528 | -84.51038 | 17475 ft | 407 kts | 195° |
| 2026-05-09 05:39 | 10.46887 | -84.51915 | 16990 ft | 403 kts | 195° |
| 2026-05-09 05:39 | 10.44241 | -84.52794 | 16501 ft | 399 kts | 195° |
| 2026-05-09 05:39 | 10.41616 | -84.53665 | 16039 ft | 395 kts | 195° |
| 2026-05-09 05:39 | 10.38979 | -84.54541 | 15535 ft | 392 kts | 195° |
| 2026-05-09 05:40 | 10.36427 | -84.55387 | 15062 ft | 390 kts | 195° |
| 2026-05-09 05:40 | 10.33859 | -84.56239 | 14582 ft | 387 kts | 195° |
| 2026-05-09 05:40 | 10.31309 | -84.57085 | 14121 ft | 385 kts | 195° |
| 2026-05-09 05:40 | 10.28771 | -84.57926 | 13625 ft | 383 kts | 195° |
| 2026-05-09 05:41 | 10.26245 | -84.58763 | 13128 ft | 381 kts | 195° |
| 2026-05-09 05:41 | 10.23747 | -84.59591 | 12863 ft | 372 kts | 195° |
| 2026-05-09 05:41 | 10.21334 | -84.60391 | 12751 ft | 359 kts | 195° |
| 2026-05-09 05:41 | 10.19002 | -84.61167 | 12639 ft | 347 kts | 195° |
| 2026-05-09 05:42 | 10.16732 | -84.61888 | 12487 ft | 336 kts | 191° |
| 2026-05-09 05:42 | 10.14471 | -84.62021 | 12322 ft | 319 kts | 167° |
| 2026-05-09 05:42 | 10.12459 | -84.61276 | 11891 ft | 301 kts | 149° |
| 2026-05-09 05:42 | 10.10696 | -84.60230 | 11457 ft | 287 kts | 146° |
| 2026-05-09 05:43 | 10.09066 | -84.59217 | 11311 ft | 263 kts | 146° |
| 2026-05-09 05:43 | 10.07562 | -84.58287 | 11199 ft | 247 kts | 146° |
| 2026-05-09 05:43 | 10.06073 | -84.57368 | 11138 ft | 251 kts | 146° |
| 2026-05-09 05:43 | 10.04593 | -84.56462 | 10987 ft | 247 kts | 147° |
| 2026-05-09 05:44 | 10.03115 | -84.55566 | 10809 ft | 248 kts | 147° |
| 2026-05-09 05:44 | 10.01632 | -84.54666 | 10593 ft | 249 kts | 147° |
| 2026-05-09 05:44 | 10.00147 | -84.53764 | 10373 ft | 249 kts | 147° |
| 2026-05-09 05:44 | 9.98665 | -84.52866 | 10157 ft | 248 kts | 147° |
| 2026-05-09 05:45 | 9.97175 | -84.52075 | 9944 ft | 237 kts | 162° |
| 2026-05-09 05:45 | 9.95547 | -84.51984 | 9514 ft | 234 kts | 182° |
| 2026-05-09 05:45 | 9.93950 | -84.52034 | 9208 ft | 225 kts | 177° |
| 2026-05-09 05:45 | 9.92383 | -84.51921 | 9001 ft | 224 kts | 171° |
| 2026-05-09 05:46 | 9.90915 | -84.51579 | 8752 ft | 212 kts | 155° |
| 2026-05-09 05:46 | 9.89782 | -84.50695 | 8479 ft | 203 kts | 125° |
| 2026-05-09 05:46 | 9.89376 | -84.49383 | 8290 ft | 200 kts | 92° |
| 2026-05-09 05:46 | 9.89480 | -84.47976 | 8144 ft | 201 kts | 78° |
| 2026-05-09 05:47 | 9.89850 | -84.46612 | 8001 ft | 200 kts | 71° |
| 2026-05-09 05:47 | 9.90317 | -84.45300 | 7714 ft | 197 kts | 70° |
| 2026-05-09 05:47 | 9.90792 | -84.43990 | 7281 ft | 198 kts | 70° |
| 2026-05-09 05:47 | 9.91267 | -84.42687 | 6877 ft | 196 kts | 69° |
| 2026-05-09 05:48 | 9.91749 | -84.41400 | 6614 ft | 196 kts | 69° |
| 2026-05-09 05:48 | 9.92224 | -84.40122 | 6391 ft | 190 kts | 69° |
| 2026-05-09 05:48 | 9.92681 | -84.38893 | 6176 ft | 183 kts | 69° |
| 2026-05-09 05:48 | 9.93122 | -84.37707 | 5963 ft | 176 kts | 69° |
| 2026-05-09 05:49 | 9.93547 | -84.36567 | 5789 ft | 168 kts | 69° |
| 2026-05-09 05:49 | 9.93946 | -84.35495 | 5577 ft | 157 kts | 69° |
| 2026-05-09 05:49 | 9.94312 | -84.34511 | 5419 ft | 143 kts | 69° |
| 2026-05-09 05:49 | 9.94661 | -84.33574 | 5226 ft | 142 kts | 69° |
| 2026-05-09 05:50 | 9.95013 | -84.32630 | 5056 ft | 144 kts | 69° |
| 2026-05-09 05:50 | 9.95367 | -84.31680 | 4870 ft | 144 kts | 69° |
| 2026-05-09 05:50 | 9.95721 | -84.30730 | 4685 ft | 143 kts | 70° |
| 2026-05-09 05:50 | 9.96074 | -84.29780 | 4502 ft | 144 kts | 69° |
| 2026-05-09 05:51 | 9.96429 | -84.28830 | 4359 ft | 144 kts | 70° |
| 2026-05-09 05:51 | 9.96780 | -84.27887 | 4171 ft | 143 kts | 71° |
| 2026-05-09 05:51 | 9.97131 | -84.26944 | 3964 ft | 143 kts | 70° |
| 2026-05-09 05:51 | 9.97493 | -84.26017 | 3759 ft | 139 kts | 71° |
| 2026-05-09 05:52 | 9.97836 | -84.25110 | 3608 ft | 138 kts | 69° |
| 2026-05-09 05:52 | 9.98170 | -84.24188 | 3381 ft | 139 kts | 70° |
| 2026-05-09 05:52 | 9.98514 | -84.23285 | 3186 ft | 135 kts | 68° |
| 2026-05-09 05:52 | 9.98828 | -84.22417 | 3032 ft | 127 kts | 72° |
| 2026-05-09 05:53 | 9.99118 | -84.21621 | 2955 ft | 106 kts | 69° |
| 2026-05-09 05:53 | 9.99335 | -84.21034 | 2988 ft | 62 kts | 69° |
| 2026-05-09 05:53 | 9.99447 | -84.20735 | 3003 ft | 37 kts | 69° |
| 2026-05-09 05:53 | 9.99521 | -84.20533 | 3011 ft | 22 kts | 69° |
| 2026-05-09 05:54 | 9.99571 | -84.20444 | 3015 ft | 11 kts | 32° |
| 2026-05-09 05:54 | 9.99620 | -84.20459 | 3015 ft | 7 kts | 300° |
| 2026-05-09 05:54 | 9.99617 | -84.20509 | 3013 ft | 7 kts | 265° |
| 2026-05-09 05:54 | 9.99644 | -84.20541 | 3012 ft | 6 kts | 331° |
| 2026-05-09 05:55 | 9.99670 | -84.20552 | 3012 ft | 2 kts | 340° |
| 2026-05-09 05:55 | 9.99670 | -84.20553 | 3012 ft | 0 kts | 340° |